createdAt,value
2023-11-12T00:00:58.812Z,72.83
2023-11-12T00:04:07.095Z,72.49
2023-11-12T00:06:53.921Z,72.66
2023-11-12T00:09:41.437Z,72.82
2023-11-12T00:12:29.361Z,72.90
2023-11-12T00:15:16.197Z,72.86
2023-11-12T00:18:03.081Z,73.14
2023-11-12T00:20:51.962Z,73.19
2023-11-12T00:23:39.098Z,73.22
2023-11-12T00:26:25.932Z,73.13
2023-11-12T00:29:13.350Z,73.16
2023-11-12T00:32:01.239Z,73.18
2023-11-12T00:34:48.695Z,73.17
2023-11-12T00:37:35.770Z,73.20
2023-11-12T00:40:22.778Z,73.29
2023-11-12T00:43:09.782Z,73.26
2023-11-12T00:46:02.413Z,73.49
2023-11-12T00:48:49.044Z,73.36
2023-11-12T00:51:37.023Z,73.29
2023-11-12T00:54:24.219Z,73.24
2023-11-12T00:57:11.198Z,73.10
2023-11-12T00:59:57.817Z,73.36
2023-11-12T01:02:44.836Z,72.92
2023-11-12T01:05:32.090Z,72.86
2023-11-12T01:08:21.823Z,72.90
2023-11-12T01:11:09.640Z,72.68
2023-11-12T01:13:56.605Z,72.99
2023-11-12T01:16:43.351Z,73.34
2023-11-12T01:19:33.629Z,73.12
2023-11-12T01:22:20.810Z,73.59
2023-11-12T01:25:08.506Z,73.66
2023-11-12T01:27:55.779Z,73.85
2023-11-12T01:30:42.901Z,73.90
2023-11-12T01:33:29.983Z,73.80
2023-11-12T01:36:17.170Z,73.56
2023-11-12T01:39:09.254Z,73.90
2023-11-12T01:41:56.227Z,74.10
2023-11-12T01:44:45.127Z,73.69
2023-11-12T01:47:32.288Z,73.49
2023-11-12T01:50:20.489Z,73.74
2023-11-12T01:53:07.511Z,73.37
2023-11-12T01:55:56.877Z,73.33
2023-11-12T01:58:44.612Z,73.61
2023-11-12T02:01:31.795Z,73.89
2023-11-12T02:04:19.655Z,73.44
2023-11-12T02:07:06.740Z,73.53
2023-11-12T02:10:07.536Z,73.44
2023-11-12T02:12:54.377Z,73.27
2023-11-12T02:15:41.493Z,73.45
2023-11-12T02:18:28.297Z,73.51
2023-11-12T02:21:15.032Z,73.77
2023-11-12T02:24:01.987Z,73.64
2023-11-12T02:26:49.279Z,73.45
2023-11-12T02:29:36.558Z,73.50
2023-11-12T02:32:24.438Z,73.66
2023-11-12T02:35:11.679Z,73.50
2023-11-12T02:37:58.454Z,73.64
2023-11-12T02:40:47.713Z,73.88
2023-11-12T02:43:35.501Z,73.41
2023-11-12T02:46:25.304Z,73.58
2023-11-12T02:49:29.448Z,73.33
2023-11-12T02:52:16.637Z,73.13
2023-11-12T02:55:04.120Z,73.19
2023-11-12T02:57:50.906Z,72.82
2023-11-12T03:00:39.552Z,72.87
2023-11-12T03:03:28.956Z,72.86
2023-11-12T03:06:16.120Z,72.93
2023-11-12T03:09:05.284Z,73.02
2023-11-12T03:11:55.169Z,73.36
2023-11-12T03:14:46.313Z,73.40
2023-11-12T03:17:33.389Z,73.30
2023-11-12T03:20:21.151Z,73.17
2023-11-12T03:23:08.404Z,73.33
2023-11-12T03:25:55.242Z,73.35
2023-11-12T03:28:42.104Z,73.30
2023-11-12T03:31:28.834Z,73.30
2023-11-12T03:34:17.265Z,73.14
2023-11-12T03:37:04.768Z,73.28
2023-11-12T03:39:51.747Z,73.18
2023-11-12T03:42:38.558Z,72.94
2023-11-12T03:45:25.367Z,73.07
2023-11-12T03:48:13.106Z,73.16
2023-11-12T03:50:59.995Z,73.05
2023-11-12T03:53:46.706Z,73.16
2023-11-12T03:56:33.696Z,73.16
2023-11-12T03:59:20.747Z,73.44
2023-11-12T04:02:07.888Z,73.20
2023-11-12T04:04:55.268Z,73.35
2023-11-12T04:07:42.414Z,73.01
2023-11-12T04:10:29.494Z,73.33
2023-11-12T04:13:17.882Z,73.06
2023-11-12T04:16:10.079Z,73.32
2023-11-12T04:18:57.284Z,73.28
2023-11-12T04:21:47.715Z,73.45
2023-11-12T04:24:34.472Z,73.76
2023-11-12T04:27:21.650Z,73.83
2023-11-12T04:30:10.104Z,73.73
2023-11-12T04:32:56.966Z,73.96
2023-11-12T04:35:43.958Z,73.85
2023-11-12T04:38:30.691Z,74.04
2023-11-12T04:41:18.185Z,73.98
2023-11-12T04:44:06.455Z,74.05
2023-11-12T04:46:53.754Z,73.97
2023-11-12T04:49:40.554Z,73.99
2023-11-12T04:52:28.045Z,73.93
2023-11-12T04:55:14.810Z,73.82
2023-11-12T04:58:07.446Z,74.08
2023-11-12T05:00:54.482Z,74.25
2023-11-12T05:03:41.896Z,74.18
2023-11-12T05:06:31.065Z,74.35
2023-11-12T05:09:18.486Z,74.24
2023-11-12T05:12:05.825Z,74.29
2023-11-12T05:14:52.782Z,74.48
2023-11-12T05:17:39.978Z,74.25
2023-11-12T05:20:26.820Z,74.15
2023-11-12T05:23:13.834Z,74.14
2023-11-12T05:26:03.792Z,74.46
2023-11-12T05:28:50.990Z,74.25
2023-11-12T05:31:38.022Z,74.37
2023-11-12T05:34:25.467Z,74.34
2023-11-12T05:37:12.421Z,74.15
2023-11-12T05:39:59.333Z,74.16
2023-11-12T05:42:46.169Z,74.21
2023-11-12T05:45:33.530Z,74.40
2023-11-12T05:48:20.562Z,74.23
2023-11-12T05:51:07.318Z,74.00
2023-11-12T05:53:54.591Z,74.10
2023-11-12T05:56:41.666Z,74.10
2023-11-12T05:59:29.140Z,74.03
2023-11-12T06:02:15.770Z,74.12
2023-11-12T06:05:05.004Z,74.21
2023-11-12T06:07:52.010Z,74.11
2023-11-12T06:10:38.797Z,73.89
2023-11-12T06:13:25.908Z,74.05
2023-11-12T06:16:12.667Z,73.93
2023-11-12T06:19:00.060Z,73.86
2023-11-12T06:21:46.749Z,74.18
2023-11-12T06:24:33.597Z,74.21
2023-11-12T06:27:20.867Z,73.96
2023-11-12T06:30:11.815Z,73.81
2023-11-12T06:33:00.529Z,73.99
2023-11-12T06:35:47.752Z,73.69
2023-11-12T06:38:34.766Z,73.53
2023-11-12T06:41:21.881Z,73.33
2023-11-12T06:44:12.403Z,73.27
2023-11-12T06:46:59.702Z,73.63
2023-11-12T06:49:47.327Z,73.46
2023-11-12T06:52:34.351Z,73.31
2023-11-12T06:55:22.004Z,73.31
2023-11-12T06:58:09.295Z,73.16
2023-11-12T07:00:56.174Z,73.09
2023-11-12T07:03:43.117Z,73.04
2023-11-12T07:06:30.204Z,72.93
2023-11-12T07:09:18.162Z,73.02
2023-11-12T07:12:05.982Z,72.98
2023-11-12T07:14:52.803Z,72.83
2023-11-12T07:17:39.941Z,72.77
2023-11-12T07:20:33.481Z,72.82
2023-11-12T07:23:20.284Z,72.85
2023-11-12T07:26:07.473Z,72.77
2023-11-12T07:28:55.538Z,72.89
2023-11-12T07:31:48.805Z,72.57
2023-11-12T07:34:35.673Z,72.62
2023-11-12T07:37:22.454Z,72.63
2023-11-12T07:40:17.556Z,72.47
2023-11-12T07:43:04.651Z,72.40
2023-11-12T07:45:51.491Z,72.60
2023-11-12T07:48:38.376Z,72.54
2023-11-12T07:51:25.617Z,72.62
2023-11-12T07:54:12.207Z,72.47
2023-11-12T07:56:59.401Z,72.32
2023-11-12T07:59:46.565Z,72.38
2023-11-12T08:02:33.538Z,72.49
2023-11-12T08:05:22.039Z,72.38
2023-11-12T08:08:09.416Z,72.17
2023-11-12T08:11:01.240Z,71.91
2023-11-12T08:13:48.909Z,71.66
2023-11-12T08:16:36.382Z,71.72
2023-11-12T08:19:23.191Z,71.58
2023-11-12T08:22:10.373Z,71.57
2023-11-12T08:24:58.258Z,71.60
2023-11-12T08:27:45.082Z,71.17
2023-11-12T08:30:33.184Z,70.99
2023-11-12T08:33:20.676Z,71.10
2023-11-12T08:36:09.055Z,70.84
2023-11-12T08:38:56.101Z,70.72
2023-11-12T08:41:45.361Z,71.06
2023-11-12T08:44:32.501Z,70.99
2023-11-12T08:47:20.770Z,70.76
2023-11-12T08:50:08.594Z,70.32
2023-11-12T08:52:58.216Z,70.19
2023-11-12T08:55:44.936Z,69.64
2023-11-12T08:58:35.236Z,69.88
2023-11-12T09:01:23.172Z,69.89
2023-11-12T09:04:10.428Z,69.81
2023-11-12T09:06:57.834Z,69.41
2023-11-12T09:09:45.368Z,68.90
2023-11-12T09:12:32.697Z,68.64
2023-11-12T09:15:19.693Z,68.54
2023-11-12T09:18:07.180Z,68.24
2023-11-12T09:20:54.330Z,68.04
2023-11-12T09:23:41.725Z,67.83
2023-11-12T09:26:28.819Z,67.61
2023-11-12T09:29:19.388Z,67.45
2023-11-12T09:32:07.043Z,67.53
2023-11-12T09:34:54.180Z,67.41
2023-11-12T09:37:43.071Z,67.09
2023-11-12T09:40:32.573Z,67.33
2023-11-12T09:43:19.394Z,67.33
2023-11-12T09:46:09.850Z,66.94
2023-11-12T09:48:57.003Z,66.86
2023-11-12T09:51:44.306Z,66.84
2023-11-12T09:54:31.932Z,67.16
2023-11-12T09:57:19.813Z,66.70
2023-11-12T10:00:08.529Z,66.49
2023-11-12T10:02:58.789Z,66.63
2023-11-12T10:05:50.066Z,66.20
2023-11-12T10:08:37.072Z,65.98
2023-11-12T10:11:25.480Z,65.61
2023-11-12T10:14:18.327Z,65.25
2023-11-12T10:17:08.756Z,65.41
2023-11-12T10:19:57.568Z,65.41
2023-11-12T10:22:44.520Z,65.40
2023-11-12T10:25:45.396Z,65.05
2023-11-12T10:28:36.118Z,64.64
2023-11-12T10:31:39.381Z,64.82
2023-11-12T10:34:28.927Z,64.51
2023-11-12T10:37:16.046Z,64.19
2023-11-12T10:40:09.812Z,64.43
2023-11-12T10:43:11.011Z,64.27
2023-11-12T10:46:05.595Z,64.23
2023-11-12T10:48:55.790Z,63.74
2023-11-12T10:51:43.632Z,63.91
2023-11-12T10:54:34.240Z,63.80
2023-11-12T10:57:24.909Z,64.04
2023-11-12T11:00:12.897Z,64.16
2023-11-12T11:03:00.530Z,64.36
2023-11-12T11:05:48.184Z,63.92
2023-11-12T11:08:37.727Z,63.65
2023-11-12T11:11:25.250Z,63.87
2023-11-12T11:14:30.747Z,63.86
2023-11-12T11:17:38.076Z,63.69
2023-11-12T11:20:25.399Z,63.19
2023-11-12T11:23:53.607Z,62.77
2023-11-12T11:26:41.025Z,62.92
2023-11-12T11:29:29.360Z,62.72
2023-11-12T11:32:18.600Z,63.01
2023-11-12T11:35:19.151Z,63.01
2023-11-12T11:38:14.168Z,62.98
2023-11-12T11:41:01.525Z,62.71
2023-11-12T11:43:48.668Z,62.95
2023-11-12T11:47:06.787Z,63.25
2023-11-12T11:50:00.045Z,62.96
2023-11-12T11:52:52.812Z,63.29
2023-11-12T11:55:41.904Z,63.27
2023-11-12T11:58:31.309Z,62.71
2023-11-12T12:01:18.465Z,62.73
2023-11-12T12:04:07.496Z,61.89
2023-11-12T12:06:57.109Z,61.36
2023-11-12T12:09:44.271Z,61.47
2023-11-12T12:12:31.856Z,61.35
2023-11-12T12:15:19.044Z,61.02
2023-11-12T12:18:21.410Z,60.92
2023-11-12T12:21:08.477Z,60.69
2023-11-12T12:23:56.162Z,60.78
2023-11-12T12:26:44.285Z,61.18
2023-11-12T12:29:33.145Z,60.97
2023-11-12T12:32:23.688Z,60.69
2023-11-12T12:35:10.628Z,60.68
2023-11-12T12:38:08.548Z,60.53
2023-11-12T12:41:04.196Z,60.46
2023-11-12T12:43:57.585Z,60.59
2023-11-12T12:46:48.080Z,60.90
2023-11-12T12:49:35.714Z,61.25
2023-11-12T12:52:23.366Z,61.07
2023-11-12T12:55:11.877Z,60.95
2023-11-12T12:58:00.466Z,60.76
2023-11-12T13:00:50.009Z,60.81
2023-11-12T13:03:39.190Z,60.59
2023-11-12T13:06:27.428Z,60.45
2023-11-12T13:09:19.963Z,60.42
2023-11-12T13:12:08.954Z,60.87
2023-11-12T13:14:56.019Z,60.59
2023-11-12T13:17:43.215Z,60.67
2023-11-12T13:20:30.412Z,60.44
2023-11-12T13:23:20.671Z,60.10
2023-11-12T13:26:07.646Z,60.05
2023-11-12T13:28:55.127Z,60.17
2023-11-12T13:31:42.652Z,60.02
2023-11-12T13:34:29.746Z,59.98
2023-11-12T13:37:17.108Z,59.72
2023-11-12T13:40:06.799Z,59.83
2023-11-12T13:42:55.725Z,60.07
2023-11-12T13:45:44.522Z,60.10
2023-11-12T13:48:32.263Z,60.26
2023-11-12T13:51:21.257Z,60.29
2023-11-12T13:54:11.701Z,60.18
2023-11-12T13:57:00.834Z,60.45
2023-11-12T13:59:47.936Z,60.81
2023-11-12T14:02:34.945Z,60.82
2023-11-12T14:05:27.557Z,60.82
2023-11-12T14:08:14.641Z,61.25
2023-11-12T14:11:02.022Z,61.30
2023-11-12T14:13:49.218Z,61.30
2023-11-12T14:16:39.535Z,61.58
2023-11-12T14:19:27.304Z,61.37
2023-11-12T14:22:15.654Z,61.75
2023-11-12T14:25:04.650Z,61.72
2023-11-12T14:27:54.008Z,61.83
2023-11-12T14:30:41.860Z,61.75
2023-11-12T14:33:29.250Z,62.01
2023-11-12T14:36:16.217Z,61.94
2023-11-12T14:39:06.109Z,62.37
2023-11-12T14:41:56.221Z,62.63
2023-11-12T14:44:43.690Z,62.74
2023-11-12T14:47:31.793Z,62.89
2023-11-12T14:50:19.068Z,63.31
2023-11-12T14:53:06.576Z,63.33
2023-11-12T14:55:55.850Z,63.37
2023-11-12T14:58:42.681Z,63.35
2023-11-12T15:01:29.745Z,63.21
2023-11-12T15:04:17.060Z,62.64
2023-11-12T15:07:04.158Z,62.67
2023-11-12T15:09:51.770Z,62.65
2023-11-12T15:12:38.978Z,62.26
2023-11-12T15:15:26.777Z,62.62
2023-11-12T15:18:15.660Z,62.52
2023-11-12T15:21:07.716Z,62.75
2023-11-12T15:23:54.551Z,62.94
2023-11-12T15:26:43.018Z,63.00
2023-11-12T15:29:30.106Z,62.99
2023-11-12T15:32:17.778Z,63.38
2023-11-12T15:35:05.964Z,63.43
2023-11-12T15:37:52.753Z,63.78
2023-11-12T15:40:40.801Z,63.80
2023-11-12T15:43:27.951Z,64.02
2023-11-12T15:46:14.674Z,64.57
2023-11-12T15:49:01.476Z,64.61
2023-11-12T15:51:49.110Z,65.07
2023-11-12T15:54:35.866Z,65.19
2023-11-12T15:57:22.347Z,64.86
2023-11-12T16:00:15.555Z,65.06
2023-11-12T16:03:09.204Z,64.98
2023-11-12T16:06:06.745Z,65.14
2023-11-12T16:08:56.544Z,65.42
2023-11-12T16:11:45.113Z,65.62
2023-11-12T16:14:31.695Z,65.68
2023-11-12T16:17:18.782Z,66.08
2023-11-12T16:20:09.914Z,66.26
2023-11-12T16:22:57.813Z,66.74
2023-11-12T16:25:45.394Z,66.94
2023-11-12T16:28:33.449Z,67.04
2023-11-12T16:31:20.615Z,67.37
2023-11-12T16:34:07.527Z,67.58
2023-11-12T16:36:54.655Z,67.78
2023-11-12T16:39:46.275Z,67.85
2023-11-12T16:42:33.199Z,67.95
2023-11-12T16:45:20.080Z,68.42
2023-11-12T16:48:08.809Z,68.13
2023-11-12T16:50:55.691Z,68.34
2023-11-12T16:53:42.640Z,68.00
2023-11-12T16:56:29.433Z,68.12
2023-11-12T16:59:16.546Z,68.09
2023-11-12T17:02:03.656Z,67.88
2023-11-12T17:04:50.976Z,67.46
2023-11-12T17:07:37.946Z,67.45
2023-11-12T17:10:25.067Z,67.56
2023-11-12T17:13:13.246Z,67.82
2023-11-12T17:16:00.248Z,68.04
2023-11-12T17:18:47.204Z,68.35
2023-11-12T17:21:34.463Z,68.62
2023-11-12T17:24:24.719Z,68.73
2023-11-12T17:27:14.055Z,68.78
2023-11-12T17:30:01.849Z,68.91
2023-11-12T17:32:48.940Z,68.82
2023-11-12T17:35:37.312Z,69.09
2023-11-12T17:38:29.064Z,69.35
2023-11-12T17:41:16.366Z,69.29
2023-11-12T17:44:03.215Z,69.27
2023-11-12T17:46:50.506Z,69.38
2023-11-12T17:49:37.284Z,69.34
2023-11-12T17:52:28.410Z,69.02
2023-11-12T17:55:15.427Z,69.01
2023-11-12T17:58:02.280Z,68.94
2023-11-12T18:00:51.021Z,68.96
2023-11-12T18:03:39.560Z,69.08
2023-11-12T18:06:27.312Z,68.94
2023-11-12T18:09:16.708Z,68.73
2023-11-12T18:12:03.867Z,68.94
2023-11-12T18:14:50.655Z,68.97
2023-11-12T18:17:39.060Z,68.58
2023-11-12T18:20:25.903Z,68.68
2023-11-12T18:23:13.507Z,69.06
2023-11-12T18:26:03.013Z,68.96
2023-11-12T18:28:53.491Z,68.99
2023-11-12T18:31:41.343Z,68.96
2023-11-12T18:34:28.361Z,68.60
2023-11-12T18:37:15.740Z,68.65
2023-11-12T18:40:04.462Z,68.57
2023-11-12T18:42:53.509Z,68.90
2023-11-12T18:45:40.815Z,68.42
2023-11-12T18:48:27.704Z,68.69
2023-11-12T18:51:17.601Z,68.70
2023-11-12T18:54:04.406Z,68.72
2023-11-12T18:56:51.462Z,68.81
2023-11-12T18:59:39.048Z,68.54
2023-11-12T19:02:26.451Z,68.53
2023-11-12T19:05:13.873Z,68.52
2023-11-12T19:08:01.149Z,68.68
2023-11-12T19:10:49.825Z,68.69
2023-11-12T19:13:37.091Z,68.56
2023-11-12T19:16:23.643Z,68.57
2023-11-12T19:19:13.359Z,68.72
2023-11-12T19:22:01.228Z,68.70
2023-11-12T19:24:48.380Z,68.93
2023-11-12T19:27:40.190Z,68.99
2023-11-12T19:30:28.465Z,69.07
2023-11-12T19:33:15.367Z,68.85
2023-11-12T19:36:02.309Z,69.08
2023-11-12T19:38:49.600Z,68.95
2023-11-12T19:41:36.481Z,69.01
2023-11-12T19:44:26.366Z,68.91
2023-11-12T19:47:13.313Z,69.57
2023-11-12T19:50:00.744Z,69.80
2023-11-12T19:52:48.040Z,70.05
2023-11-12T19:55:35.321Z,70.23
2023-11-12T19:58:22.216Z,70.32
2023-11-12T20:01:09.323Z,70.24
2023-11-12T20:03:57.505Z,70.49
2023-11-12T20:06:44.524Z,70.27
2023-11-12T20:09:32.613Z,70.25
2023-11-12T20:12:19.349Z,70.14
2023-11-12T20:15:10.740Z,70.16
2023-11-12T20:17:57.635Z,70.23
2023-11-12T20:20:44.716Z,70.11
2023-11-12T20:23:33.009Z,69.97
2023-11-12T20:26:21.186Z,70.14
2023-11-12T20:29:08.186Z,70.44
2023-11-12T20:31:57.954Z,70.56
2023-11-12T20:34:46.009Z,70.55
2023-11-12T20:37:32.892Z,70.49
2023-11-12T20:40:21.025Z,70.43
2023-11-12T20:43:12.137Z,70.57
2023-11-12T20:45:59.430Z,70.69
2023-11-12T20:48:46.542Z,70.87
2023-11-12T20:51:33.328Z,71.04
2023-11-12T20:54:21.195Z,71.32
2023-11-12T20:57:08.026Z,71.19
2023-11-12T20:59:54.663Z,70.98
2023-11-12T21:02:44.460Z,70.71
2023-11-12T21:05:33.363Z,70.88
2023-11-12T21:08:20.274Z,71.09
2023-11-12T21:11:08.436Z,70.92
2023-11-12T21:13:58.323Z,70.91
2023-11-12T21:16:45.358Z,70.95
2023-11-12T21:19:34.675Z,70.99
2023-11-12T21:22:21.884Z,71.07
2023-11-12T21:25:11.114Z,70.96
2023-11-12T21:27:58.491Z,70.69
2023-11-12T21:30:46.396Z,70.50
2023-11-12T21:33:33.244Z,70.45
2023-11-12T21:36:20.242Z,70.65
2023-11-12T21:39:09.753Z,70.41
2023-11-12T21:41:58.259Z,70.41
2023-11-12T21:44:46.106Z,70.35
2023-11-12T21:47:33.101Z,70.43
2023-11-12T21:50:22.194Z,70.39
2023-11-12T21:53:10.714Z,70.13
2023-11-12T21:55:59.225Z,70.35
2023-11-12T21:58:46.870Z,70.18
2023-11-12T22:01:34.977Z,70.24
2023-11-12T22:04:22.973Z,70.10
2023-11-12T22:07:09.762Z,69.76
2023-11-12T22:09:56.722Z,69.70
2023-11-12T22:12:45.034Z,70.07
2023-11-12T22:15:31.889Z,69.81
2023-11-12T22:18:24.786Z,69.89
2023-11-12T22:21:12.564Z,69.96
2023-11-12T22:24:01.371Z,69.77
2023-11-12T22:26:48.552Z,69.66
2023-11-12T22:29:35.651Z,69.77
2023-11-12T22:32:22.456Z,69.77
2023-11-12T22:35:12.847Z,69.80
2023-11-12T22:37:59.599Z,69.79
2023-11-12T22:40:48.800Z,69.74
2023-11-12T22:43:36.115Z,69.64
2023-11-12T22:46:23.282Z,69.60
2023-11-12T22:49:11.094Z,69.65
2023-11-12T22:51:58.359Z,69.79
2023-11-12T22:54:45.262Z,69.79
2023-11-12T22:57:33.357Z,69.75
2023-11-12T23:00:42.930Z,69.76
2023-11-12T23:03:33.776Z,69.74
2023-11-12T23:06:22.085Z,69.45
2023-11-12T23:09:09.513Z,69.53
2023-11-12T23:12:00.483Z,69.33
2023-11-12T23:14:47.383Z,69.24
2023-11-12T23:17:35.170Z,69.45
2023-11-12T23:20:22.851Z,69.43
2023-11-12T23:23:10.020Z,69.33
2023-11-12T23:25:57.104Z,69.51
2023-11-12T23:28:44.189Z,69.29
2023-11-12T23:31:31.087Z,69.21
2023-11-12T23:34:19.083Z,68.99
2023-11-12T23:37:07.910Z,69.13
2023-11-12T23:39:57.053Z,68.90
2023-11-12T23:42:45.208Z,69.13
2023-11-12T23:45:32.053Z,69.07
2023-11-12T23:48:19.318Z,69.12
2023-11-12T23:51:06.043Z,68.97
2023-11-12T23:53:53.412Z,68.86
2023-11-12T23:56:40.277Z,68.96
2023-11-12T23:59:27.249Z,69.09
